• Join FlightAware (Why Join?)
  • Login
  • US Flag 
10:08AM EDT


 

Airport Tracker/Info


-or-


 

Live Flight TrackerFlight Track Log ✈ AWE1910 ✈ 27-Jun-2013 ✈ KCLT - KLGA

Flight Track Log - Related Links

Times and Time Zones

All times are in EDT time to prevent confusion due to time zone crossing. See the AWE1910 flight status page for this flight to view local times or setup timezone preferences in your user account.

Time Position Orientation Groundspeed Altitude Reporting Facility
EDT Latitude Longitude Course Direction KTS MPH feet Rate Location/Type
10:22AM 35.1760 -80.9320 176° South 182 209 2,500  Level FlightAware
10:22AM 35.1630 -80.9300 173° South 203 234 2,700 900 Climbing FlightAware
10:22AM 35.1520 -80.9240 156° South 228 262 2,900 960 Climbing FlightAware
10:22AM 35.1440 -80.9110 127° Southeast 250 288 3,100 1,260 Climbing FlightAware
10:23AM 35.1320 -80.8750 112° Southeast 283 326 3,700 2,160 Climbing FlightAware
10:23AM 35.1170 -80.8240 110° East 291 335 5,200 2,640 Climbing FlightAware
10:24AM 35.1110 -80.7960 105° East 298 343 5,900 2,460 Climbing FlightAware
10:24AM 35.1150 -80.7480 84° East 301 346 7,100 2,460 Climbing FlightAware
10:24AM 35.1200 -80.7190 78° East 303 349 7,900 2,640 Climbing FlightAware
10:25AM 35.1350 -80.6890 59° Northeast 303 349 8,800 2,760 Climbing FlightAware
10:25AM 35.1420 -80.6770 54° Northeast 304 350 9,100 1,980 Climbing FlightAware
10:26AM 35.1790 -80.6100 56° Northeast 326 375 10,600 1,380 Climbing FlightAware
10:27AM 35.2430 -80.4960 55° Northeast 391 450 11,800 1,500 Climbing FlightAware
10:28AM 35.3020 -80.3890 56° Northeast 409 471 13,700 2,040 Climbing FlightAware
10:28AM 35.3550 -80.2940 56° Northeast 407 468 15,500 1,920 Climbing FlightAware
10:29AM 35.3960 -80.2200 56° Northeast 414 476 16,600 1,500 Climbing FlightAware
10:31AM 35.4750 -79.9800 68° East 434 499 19,300 1,440 Climbing FlightAware
10:32AM 35.5000 -79.8830 72° East 442 509 20,200 1,260 Climbing FlightAware
10:32AM 35.5240 -79.7880 73° East 451 519 21,000 1,140 Climbing FlightAware
10:33AM 35.5630 -79.6330 73° East 460 529 22,200 1,200 Climbing FlightAware
10:34AM 35.5850 -79.5450 73° East 464 534 23,000 1,080 Climbing FlightAware
10:35AM 35.6200 -79.4180 71° East 470 541 23,800 1,080 Climbing FlightAware
10:35AM 35.6530 -79.3340 64° Northeast 472 543 24,600 1,200 Climbing FlightAware
10:36AM 35.6970 -79.2250 64° Northeast 475 547 25,400 900 Climbing FlightAware
10:37AM 35.7410 -79.1150 64° Northeast 483 556 26,000 780 Climbing FlightAware
10:37AM 35.7760 -79.0270 64° Northeast 487 560 26,500 900 Climbing FlightAware
10:38AM 35.8210 -78.9140 64° Northeast 487 560 27,200 960 Climbing FlightAware
10:39AM 35.8650 -78.8160 61° Northeast 486 559 27,900 1,140 Climbing FlightAware
10:40AM 35.9360 -78.7280 45° Northeast 480 552 28,900 1,260 Climbing FlightAware
10:40AM 36.0240 -78.6510 35° Northeast 475 547 29,900 1,140 Climbing FlightAware
10:41AM 36.1200 -78.5670 35° Northeast 480 552 30,800 720 Climbing FlightAware
10:42AM 36.1910 -78.5040 36° Northeast 475 547 31,000 120 Climbing FlightAware
10:43AM 36.2740 -78.4300 36° Northeast 475 547 31,000  Level FlightAware
10:43AM 36.3480 -78.3650 35° Northeast 478 550 31,000  Level FlightAware
10:44AM 36.4120 -78.3070 36° Northeast 477 549 31,000  Level FlightAware
10:45AM 36.5160 -78.2150 35° Northeast 476 548 31,000  Level FlightAware
10:48AM 36.8180 -77.9180 38° Northeast 470 541 31,000  Level FlightAware
10:49AM 36.9300 -77.8040 39° Northeast 472 543 31,000  Level FlightAware
10:50AM 36.9880 -77.7440 40° Northeast 472 543 31,000  Level FlightAware
10:50AM 37.0620 -77.6700 39° Northeast 473 544 31,000 60 Level FlightAware
10:51AM 37.1410 -77.5890 39° Northeast 473 544 31,100  Climbing FlightAware
10:52AM 37.2090 -77.5200 39° Northeast 471 542 31,000 -120 Descending FlightAware
10:52AM 37.2870 -77.4410 39° Northeast 469 540 31,000  Level FlightAware
10:53AM 37.3620 -77.3640 39° Northeast 471 542 31,000  Level FlightAware
10:54AM 37.4150 -77.3100 39° Northeast 471 542 31,000  Level FlightAware
10:54AM 37.4900 -77.2330 39° Northeast 472 543 31,000  Level FlightAware
10:55AM 37.5810 -77.1390 39° Northeast 470 541 31,000  Level FlightAware
10:56AM 37.6650 -77.0520 39° Northeast 470 541 31,000  Level FlightAware
10:57AM 37.7350 -76.9800 39° Northeast 469 540 31,000  Level FlightAware
10:58AM 37.8090 -76.9020 40° Northeast 470 541 31,000  Level FlightAware
10:58AM 37.8700 -76.8390 39° Northeast 470 541 31,000  Level FlightAware
10:59AM 37.9200 -76.7860 40° Northeast 471 542 31,000  Level FlightAware
10:59AM 37.9920 -76.7110 39° Northeast 470 541 31,000  Level FlightAware
11:00AM 38.0410 -76.6600 39° Northeast 470 541 31,000  Level FlightAware
11:01AM 38.1420 -76.5540 40° Northeast 471 542 31,000  Level FlightAware
11:02AM 38.2080 -76.4850 39° Northeast 472 543 31,000  Level FlightAware
11:02AM 38.2960 -76.3930 39° Northeast 471 542 31,000  Level FlightAware
11:03AM 38.3740 -76.3200 36° Northeast 471 542 31,000  Level FlightAware
11:04AM 38.4430 -76.2570 36° Northeast 471 542 31,000  Level FlightAware
11:05AM 38.5220 -76.1840 36° Northeast 470 541 31,000  Level FlightAware
11:05AM 38.5980 -76.1130 36° Northeast 470 541 31,000 -180 Level FlightAware
11:06AM 38.6880 -76.0280 36° Northeast 470 541 30,800 -600 Descending FlightAware
11:07AM 38.7710 -75.9510 36° Northeast 474 545 30,000 -1,140 Descending FlightAware
11:08AM 38.8420 -75.8850 36° Northeast 474 545 29,200 -1,800 Descending FlightAware
11:08AM 38.9320 -75.8000 36° Northeast 461 531 27,300 -1,380 Descending FlightAware
11:09AM 39.0120 -75.7250 36° Northeast 468 539 27,000 -900 Descending FlightAware
11:10AM 39.0910 -75.6490 37° Northeast 460 529 26,000 -1,140 Descending FlightAware
11:12AM 39.2530 -75.4970 36° Northeast 456 525 24,300 -840 Descending FlightAware
11:12AM 39.3450 -75.4160 34° Northeast 457 526 24,000 -540 Descending FlightAware
11:13AM 39.4100 -75.3570 35° Northeast 456 525 23,500 -2,400 Descending FlightAware
11:14AM 39.4980 -75.2790 34° Northeast 444 511 20,400 -3,060 Descending FlightAware
11:15AM 39.5960 -75.1880 36° Northeast 430 495 18,500 -1,800 Descending FlightAware
11:16AM 39.6650 -75.1220 36° Northeast 409 471 17,400 -1,500 Descending FlightAware
11:16AM 39.7300 -75.0660 34° Northeast 404 465 16,400 -1,440 Descending FlightAware
11:17AM 39.7930 -75.0120 33° Northeast 400 460 15,500 -1,440 Descending FlightAware
11:18AM 39.8600 -74.9540 34° Northeast 392 451 14,400 -1,440 Descending FlightAware
11:18AM 39.9190 -74.8990 36° Northeast 390 449 13,500 -1,440 Descending FlightAware
11:19AM 39.9700 -74.8280 47° Northeast 386 444 12,500 -1,380 Descending FlightAware
11:20AM 40.0160 -74.7640 47° Northeast 385 443 11,700 -1,320 Descending FlightAware
11:20AM 40.0620 -74.6970 48° Northeast 370 426 10,900 -960 Descending FlightAware
11:21AM 40.1160 -74.6190 48° Northeast 331 381 10,300 -480 Descending FlightAware
11:22AM 40.1574 -74.5598 48° Northeast 316 364 10,200 -120 Descending FlightAware ADS-B
11:22AM 40.1796 -74.5279 48° Northeast 318 366 10,200  Level FlightAware ADS-B
11:22AM 40.1892 -74.5140 48° Northeast 318 366 10,200  Level FlightAware ADS-B
11:23AM 40.2006 -74.4977 48° Northeast 318 366 10,200  Level FlightAware ADS-B
11:23AM 40.2290 -74.4613 44° Northeast 316 364 10,200  Level FlightAware ADS-B
11:23AM 40.2338 -74.4553 44° Northeast 317 365 10,200  Level FlightAware ADS-B
11:24AM 40.2661 -74.4146 44° Northeast 318 366 10,200 -120 Level FlightAware ADS-B
11:24AM 40.2979 -74.3743 44° Northeast 314 361 10,100 -360 Descending FlightAware ADS-B
11:24AM 40.3043 -74.3664 43° Northeast 312 359 10,000 -1,440 Descending FlightAware ADS-B
11:24AM 40.3163 -74.3532 40° Northeast 310 357 9,700 -1,620 Descending FlightAware ADS-B
11:25AM 40.3335 -74.3356 38° Northeast 310 357 9,300 -1,440 Descending FlightAware ADS-B
11:25AM 40.3504 -74.3182 38° Northeast 305 351 9,000 -1,380 Descending FlightAware ADS-B
11:25AM 40.3675 -74.3004 38° Northeast 304 350 8,600 -1,500 Descending FlightAware ADS-B
11:25AM 40.3857 -74.2814 38° Northeast 302 348 8,200 -1,260 Descending FlightAware ADS-B
11:26AM 40.4046 -74.2618 38° Northeast 298 343 7,900 -1,320 Descending FlightAware ADS-B
11:26AM 40.4261 -74.2396 38° Northeast 296 341 7,400 -1,080 Descending FlightAware ADS-B
11:26AM 40.4484 -74.2163 38° Northeast 294 338 7,200 -540 Descending FlightAware ADS-B
11:27AM 40.4646 -74.1995 38° Northeast 295 339 7,100  Descending FlightAware ADS-B
11:27AM 40.4808 -74.1826 38° Northeast 296 341 7,200 -660 Climbing FlightAware ADS-B
11:28AM 40.5320 -74.1290 39° Northeast 291 335 6,400 -1,080 Descending FlightAware
11:28AM 40.5530 -74.1080 37° Northeast 289 333 5,900 -1,440 Descending FlightAware
11:29AM 40.5930 -74.0790 29° Northeast 281 323 5,100 -1,560 Descending FlightAware
11:29AM 40.6236 -74.0729 North 278 320 4,500 -1,140 Descending FlightAware ADS-B
11:29AM 40.6570 -74.0663 North 275 316 4,200 -480 Descending FlightAware ADS-B
11:30AM 40.6762 -74.0625 North 270 311 4,200  Level FlightAware ADS-B
11:30AM 40.6950 -74.0588 North 266 306 4,200  Level FlightAware ADS-B
11:30AM 40.7134 -74.0553 North 264 304 4,200 -300 Level FlightAware ADS-B
11:30AM 40.7192 -74.0538 11° North 263 303 4,100 -780 Descending FlightAware ADS-B
11:30AM 40.7231 -74.0523 16° North 264 304 4,100 840 Level FlightAware ADS-B
11:30AM 40.7283 -74.0493 24° Northeast 264 304 4,200 660 Climbing FlightAware ADS-B
11:31AM 40.7330 -74.0457 30° Northeast 264 304 4,200  Level FlightAware ADS-B
11:31AM 40.7493 -74.0300 36° Northeast 266 306 4,200  Level FlightAware ADS-B
11:31AM 40.7655 -74.0134 38° Northeast 266 306 4,200  Level FlightAware ADS-B
11:31AM 40.7802 -73.9984 38° Northeast 267 307 4,200  Level FlightAware ADS-B
11:32AM 40.7949 -73.9832 38° Northeast 269 310 4,200  Level FlightAware ADS-B
11:32AM 40.8106 -73.9672 38° Northeast 269 310 4,200  Level FlightAware ADS-B
11:32AM 40.8263 -73.9512 38° Northeast 268 308 4,200 -600 Level FlightAware ADS-B
11:32AM 40.8426 -73.9348 37° Northeast 267 307 3,900 -1,680 Descending FlightAware ADS-B
11:33AM 40.8588 -73.9187 37° Northeast 267 307 3,300 -2,160 Descending FlightAware ADS-B
11:33AM 40.8795 -73.8980 37° Northeast 264 304 2,600 -1,680 Descending FlightAware ADS-B
11:33AM 40.8947 -73.8830 37° Northeast 264 304 2,300 -840 Descending FlightAware ADS-B
11:34AM 40.9144 -73.8636 37° Northeast 253 291 2,100 -360 Descending FlightAware ADS-B
11:34AM 40.9271 -73.8508 37° Northeast 213 245 2,100  Level FlightAware ADS-B
11:34AM 40.9294 -73.8477 46° Northeast 207 238 2,100  Level FlightAware ADS-B
11:34AM 40.9311 -73.8446 54° Northeast 203 234 2,100  Level FlightAware ADS-B
11:34AM 40.9340 -73.8348 69° East 189 217 2,100  Level FlightAware ADS-B